createdAt,value
2016-11-25T00:00:04.575Z,4.65
2016-11-25T00:01:04.571Z,4.58
2016-11-25T00:02:04.551Z,4.6
2016-11-25T00:03:04.539Z,4.48
2016-11-25T00:04:04.530Z,4.53
2016-11-25T00:05:04.510Z,4.48
2016-11-25T00:06:04.501Z,4.53
2016-11-25T00:07:04.489Z,4.5
2016-11-25T00:08:04.468Z,4.54
2016-11-25T00:09:04.460Z,4.58
2016-11-25T00:10:04.449Z,4.57
2016-11-25T00:11:04.438Z,4.6
2016-11-25T00:12:04.412Z,4.57
2016-11-25T00:13:04.395Z,4.51
2016-11-25T00:14:04.385Z,4.57
2016-11-25T00:15:04.385Z,4.54
2016-11-25T00:16:04.355Z,4.57
2016-11-25T00:17:04.343Z,4.48
2016-11-25T00:18:04.340Z,4.48
2016-11-25T00:19:04.318Z,4.47
2016-11-25T00:20:04.302Z,4.53
2016-11-25T00:21:04.293Z,4.54
2016-11-25T00:22:04.277Z,4.48
2016-11-25T00:23:04.263Z,4.57
2016-11-25T00:24:04.252Z,4.47
2016-11-25T00:25:04.237Z,4.56
2016-11-25T00:26:04.218Z,4.56
2016-11-25T00:27:04.207Z,4.54
2016-11-25T00:28:04.194Z,4.51
2016-11-25T00:29:04.179Z,4.5
2016-11-25T00:30:04.172Z,4.57
2016-11-25T00:31:04.152Z,4.51
2016-11-25T00:32:04.170Z,4.54
2016-11-25T00:33:04.123Z,4.56
2016-11-25T00:34:04.111Z,4.53
2016-11-25T00:35:04.102Z,4.48
2016-11-25T00:36:04.084Z,4.53
2016-11-25T00:37:04.073Z,4.51
2016-11-25T00:38:04.055Z,4.61
2016-11-25T00:39:04.046Z,4.6
2016-11-25T00:40:04.034Z,4.5
2016-11-25T00:41:04.019Z,4.46
2016-11-25T00:42:03.999Z,4.53
2016-11-25T00:43:03.991Z,4.47
2016-11-25T00:44:03.974Z,4.64
2016-11-25T00:45:03.961Z,4.51
2016-11-25T00:46:03.948Z,4.46
2016-11-25T00:47:03.937Z,4.56
2016-11-25T00:48:04.253Z,4.44
2016-11-25T00:49:03.908Z,4.5
2016-11-25T00:50:03.893Z,4.46
2016-11-25T00:51:03.882Z,4.4
2016-11-25T00:52:03.863Z,4.44
2016-11-25T00:53:03.862Z,4.4
2016-11-25T00:54:03.841Z,4.44
2016-11-25T00:55:03.827Z,4.4
2016-11-25T00:56:03.811Z,4.38
2016-11-25T00:57:03.800Z,4.4
2016-11-25T00:58:03.809Z,4.38
2016-11-25T00:59:03.770Z,4.38
2016-11-25T01:00:04.071Z,4.35
2016-11-25T01:01:03.744Z,4.35
2016-11-25T01:02:03.727Z,4.29
2016-11-25T01:03:03.717Z,4.26
2016-11-25T01:04:03.705Z,4.32
2016-11-25T01:05:03.689Z,4.3
2016-11-25T01:06:03.672Z,4.22
2016-11-25T01:07:03.662Z,4.28
2016-11-25T01:08:03.648Z,4.28
2016-11-25T01:09:03.657Z,4.32
2016-11-25T01:10:03.632Z,4.33
2016-11-25T01:11:03.607Z,4.3
2016-11-25T01:12:03.592Z,4.28
2016-11-25T01:13:03.577Z,4.3
2016-11-25T01:14:03.566Z,4.29
2016-11-25T01:15:03.788Z,4.22
2016-11-25T01:16:03.538Z,4.22
2016-11-25T01:17:03.524Z,4.3
2016-11-25T01:18:03.513Z,4.21
2016-11-25T01:19:03.498Z,4.21
2016-11-25T01:20:03.487Z,4.2
2016-11-25T01:21:03.468Z,4.17
2016-11-25T01:22:03.458Z,4.12
2016-11-25T01:23:03.439Z,4.18
2016-11-25T01:24:03.429Z,4.18
2016-11-25T01:25:03.415Z,4.15
2016-11-25T01:26:03.427Z,4.22
2016-11-25T01:27:03.385Z,4.21
2016-11-25T01:28:03.370Z,4.24
2016-11-25T01:29:03.356Z,4.17
2016-11-25T01:30:03.344Z,4.24
2016-11-25T01:31:03.334Z,4.14
2016-11-25T01:32:03.317Z,4.1
2016-11-25T01:33:03.308Z,4.17
2016-11-25T01:34:03.287Z,4.11
2016-11-25T01:35:03.274Z,4.1
2016-11-25T01:36:03.260Z,4.17
2016-11-25T01:37:03.243Z,4.14
2016-11-25T01:38:03.233Z,4.1
2016-11-25T01:39:03.221Z,4.2
2016-11-25T01:40:03.206Z,4.21
2016-11-25T01:41:03.507Z,4.14
2016-11-25T01:42:03.177Z,4.14
2016-11-25T01:43:03.162Z,4.11
2016-11-25T01:44:03.146Z,4.14
2016-11-25T01:45:03.137Z,4.12
2016-11-25T01:46:03.122Z,4.21
2016-11-25T01:47:03.106Z,4.21
2016-11-25T01:48:03.094Z,4.12
2016-11-25T01:49:03.079Z,4.21
2016-11-25T01:50:03.068Z,4.14
2016-11-25T01:51:03.047Z,4.15
2016-11-25T01:52:03.032Z,4.18
2016-11-25T01:53:03.023Z,4.15
2016-11-25T01:54:03.007Z,4.18
2016-11-25T01:55:02.992Z,4.17
2016-11-25T01:56:02.980Z,4.14
2016-11-25T01:57:02.971Z,4.14
2016-11-25T01:58:02.953Z,4.2
2016-11-25T01:59:02.967Z,4.18
2016-11-25T02:00:02.926Z,4.17
2016-11-25T02:01:02.914Z,4.24
2016-11-25T02:02:02.896Z,4.17
2016-11-25T02:03:02.889Z,4.22
2016-11-25T02:04:02.873Z,4.22
2016-11-25T02:05:02.857Z,4.18
2016-11-25T02:06:02.845Z,4.2
2016-11-25T02:07:02.832Z,4.22
2016-11-25T02:08:02.817Z,4.3
2016-11-25T02:09:02.840Z,4.26
2016-11-25T02:10:03.105Z,4.28
2016-11-25T02:11:02.815Z,4.29
2016-11-25T02:12:02.763Z,4.24
2016-11-25T02:13:02.778Z,4.21
2016-11-25T02:14:02.733Z,4.17
2016-11-25T02:15:02.724Z,4.2
2016-11-25T02:16:02.706Z,4.2
2016-11-25T02:17:02.695Z,4.24
2016-11-25T02:18:02.681Z,4.2
2016-11-25T02:19:02.669Z,4.15
2016-11-25T02:20:02.675Z,4.26
2016-11-25T02:21:02.641Z,4.28
2016-11-25T02:22:02.626Z,4.24
2016-11-25T02:23:02.610Z,4.2
2016-11-25T02:24:02.599Z,4.24
2016-11-25T02:25:02.595Z,4.26
2016-11-25T02:26:02.564Z,4.18
2016-11-25T02:27:02.553Z,4.35
2016-11-25T02:28:02.536Z,4.32
2016-11-25T02:29:02.536Z,4.28
2016-11-25T02:30:02.520Z,4.32
2016-11-25T02:31:02.510Z,4.24
2016-11-25T02:32:02.483Z,4.28
2016-11-25T02:33:02.473Z,4.26
2016-11-25T02:34:02.458Z,4.29
2016-11-25T02:35:02.440Z,4.29
2016-11-25T02:36:02.425Z,4.2
2016-11-25T02:37:02.415Z,4.2
2016-11-25T02:38:02.407Z,4.28
2016-11-25T02:39:02.388Z,4.26
2016-11-25T02:40:02.374Z,4.14
2016-11-25T02:41:02.357Z,4.17
2016-11-25T02:42:02.346Z,4.1
2016-11-25T02:43:02.328Z,4.14
2016-11-25T02:44:02.329Z,4.11
2016-11-25T02:45:02.306Z,4.18
2016-11-25T02:46:02.290Z,4.17
2016-11-25T02:47:02.274Z,4.18
2016-11-25T02:48:02.260Z,4.28
2016-11-25T02:49:02.248Z,4.33
2016-11-25T02:50:02.231Z,4.26
2016-11-25T02:51:02.230Z,4.29
2016-11-25T02:52:02.205Z,4.26
2016-11-25T02:53:02.191Z,4.21
2016-11-25T02:54:02.205Z,4.32
2016-11-25T02:55:02.169Z,4.18
2016-11-25T02:56:02.150Z,4.26
2016-11-25T02:57:02.177Z,4.33
2016-11-25T02:58:02.121Z,4.2
2016-11-25T02:59:02.109Z,4.15
2016-11-25T03:00:02.094Z,4.26
2016-11-25T03:01:02.116Z,4.26
2016-11-25T03:02:02.067Z,4.18
2016-11-25T03:03:02.052Z,4.18
2016-11-25T03:04:02.038Z,4.24
2016-11-25T03:05:02.026Z,4.17
2016-11-25T03:06:02.010Z,4.2
2016-11-25T03:07:01.998Z,4.2
2016-11-25T03:08:01.983Z,4.17
2016-11-25T03:09:01.970Z,4.18
2016-11-25T03:10:01.956Z,4.21
2016-11-25T03:11:01.938Z,4.17
2016-11-25T03:12:01.928Z,4.18
2016-11-25T03:13:01.913Z,4.12
2016-11-25T03:14:01.899Z,4.18
2016-11-25T03:15:01.919Z,4.15
2016-11-25T03:16:01.869Z,4.14
2016-11-25T03:17:01.868Z,4.21
2016-11-25T03:18:01.845Z,4.21
2016-11-25T03:19:01.844Z,4.2
2016-11-25T03:20:01.815Z,4.2
2016-11-25T03:21:01.802Z,4.15
2016-11-25T03:22:01.789Z,4.17
2016-11-25T03:23:01.776Z,4.08
2016-11-25T03:24:01.771Z,4.14
2016-11-25T03:25:01.760Z,4.14
2016-11-25T03:26:01.753Z,4.12
2016-11-25T03:27:01.736Z,4.15
2016-11-25T03:28:01.702Z,4.21
2016-11-25T03:29:01.687Z,4.18
2016-11-25T03:30:01.688Z,4.18
2016-11-25T03:31:01.668Z,4.21
2016-11-25T03:32:01.650Z,4.18
2016-11-25T03:33:01.648Z,4.17
2016-11-25T03:34:01.630Z,4.11
2016-11-25T03:35:01.607Z,4.11
2016-11-25T03:36:01.591Z,4.11
2016-11-25T03:37:01.584Z,4.12
2016-11-25T03:38:01.561Z,4.2
2016-11-25T03:39:01.550Z,4.14
2016-11-25T03:40:01.542Z,4.11
2016-11-25T03:41:01.525Z,4.2
2016-11-25T03:42:01.507Z,4.12
2016-11-25T03:43:01.567Z,4.11
2016-11-25T03:44:01.479Z,4.18
2016-11-25T03:45:01.465Z,4.12
2016-11-25T03:46:01.453Z,4.14
2016-11-25T03:47:01.437Z,4.1
2016-11-25T03:48:01.422Z,4.14
2016-11-25T03:49:01.408Z,4.1
2016-11-25T03:50:01.395Z,4.11
2016-11-25T03:51:01.381Z,4.1
2016-11-25T03:52:01.364Z,4.14
2016-11-25T03:53:01.354Z,4.12
2016-11-25T03:54:01.341Z,4.1
2016-11-25T03:55:01.327Z,4.07
2016-11-25T03:56:01.309Z,4.11
2016-11-25T03:57:01.295Z,3.96
2016-11-25T03:58:01.284Z,4.04
2016-11-25T03:59:01.268Z,3.92
2016-11-25T04:00:01.256Z,4.07
2016-11-25T04:01:01.273Z,3.99
2016-11-25T04:02:01.224Z,3.97
2016-11-25T04:03:01.210Z,4.03
2016-11-25T04:04:01.197Z,4.04
2016-11-25T04:05:01.184Z,4
2016-11-25T04:06:01.170Z,3.9
2016-11-25T04:07:01.154Z,3.92
2016-11-25T04:08:01.140Z,3.94
2016-11-25T04:09:01.125Z,3.93
2016-11-25T04:10:01.115Z,3.96
2016-11-25T04:11:01.097Z,3.86
2016-11-25T04:12:01.087Z,3.94
2016-11-25T04:13:01.070Z,3.92
2016-11-25T04:14:01.052Z,3.96
2016-11-25T04:15:01.040Z,4.02
2016-11-25T04:16:01.030Z,3.96
2016-11-25T04:17:01.012Z,3.96
2016-11-25T04:18:01.000Z,3.92
2016-11-25T04:19:00.984Z,3.94
2016-11-25T04:20:00.980Z,3.96
2016-11-25T04:21:00.953Z,3.93
2016-11-25T04:22:00.945Z,3.94
2016-11-25T04:23:00.929Z,3.85
2016-11-25T04:24:00.916Z,3.85
2016-11-25T04:25:00.900Z,3.82
2016-11-25T04:26:00.889Z,3.89
2016-11-25T04:27:00.875Z,3.9
2016-11-25T04:28:00.881Z,3.86
2016-11-25T04:29:00.841Z,3.84
2016-11-25T04:30:00.828Z,3.85
2016-11-25T04:31:00.848Z,3.84
2016-11-25T04:32:00.803Z,3.92
2016-11-25T04:33:00.787Z,3.86
2016-11-25T04:34:00.774Z,3.93
2016-11-25T04:35:00.758Z,3.9
2016-11-25T04:36:00.742Z,4
2016-11-25T04:37:00.733Z,3.93
2016-11-25T04:38:00.719Z,3.92
2016-11-25T04:39:00.700Z,3.93
2016-11-25T04:40:00.690Z,3.92
2016-11-25T04:41:00.992Z,3.96
2016-11-25T04:42:00.661Z,3.92
2016-11-25T04:43:00.645Z,3.93
2016-11-25T04:44:00.631Z,3.99
2016-11-25T04:45:00.618Z,4.04
2016-11-25T04:46:00.604Z,4.03
2016-11-25T04:47:00.589Z,3.93
2016-11-25T04:48:00.899Z,3.97
2016-11-25T04:49:00.561Z,3.94
2016-11-25T04:50:00.546Z,3.97
2016-11-25T04:51:00.531Z,4
2016-11-25T04:52:00.521Z,4.08
2016-11-25T04:53:00.502Z,4.11
2016-11-25T04:54:00.492Z,4.14
2016-11-25T04:55:00.478Z,4.15
2016-11-25T04:56:00.460Z,4.18
2016-11-25T04:57:00.447Z,4.12
2016-11-25T04:58:00.434Z,4.15
2016-11-25T04:59:00.424Z,4.15
2016-11-25T05:00:00.405Z,4.2
2016-11-25T05:01:00.392Z,4.24
2016-11-25T05:02:00.378Z,4.24
2016-11-25T05:03:00.373Z,4.18
2016-11-25T05:04:00.353Z,4.26
2016-11-25T05:05:00.336Z,4.21
2016-11-25T05:06:00.319Z,4.28
2016-11-25T05:07:00.308Z,4.2
2016-11-25T05:08:00.295Z,4.32
2016-11-25T05:09:00.280Z,4.26
2016-11-25T05:10:00.264Z,4.18
2016-11-25T05:11:00.252Z,4.2
2016-11-25T05:12:00.237Z,4.22
2016-11-25T05:13:00.224Z,4.12
2016-11-25T05:14:00.213Z,4.08
2016-11-25T05:15:00.195Z,4.11
2016-11-25T05:16:00.182Z,4.15
2016-11-25T05:17:00.170Z,4.12
2016-11-25T05:18:00.158Z,4.02
2016-11-25T05:19:00.142Z,3.94
2016-11-25T05:20:00.126Z,3.94
2016-11-25T05:21:00.114Z,3.96
2016-11-25T05:22:00.102Z,3.92
2016-11-25T05:23:00.087Z,3.94
2016-11-25T05:24:00.071Z,3.97
2016-11-25T05:25:00.056Z,3.92
2016-11-25T05:26:00.045Z,3.89
2016-11-25T05:27:00.028Z,3.89
2016-11-25T05:28:00.014Z,3.78
2016-11-25T05:29:00.002Z,3.78
2016-11-25T05:29:59.985Z,3.79
2016-11-25T05:30:59.971Z,3.84
2016-11-25T05:31:59.961Z,3.79
2016-11-25T05:32:59.944Z,3.81
2016-11-25T05:33:59.928Z,3.75
2016-11-25T05:34:59.919Z,3.74
2016-11-25T05:35:59.900Z,3.74
2016-11-25T05:36:59.885Z,3.74
2016-11-25T05:37:59.883Z,3.79
2016-11-25T05:38:59.859Z,3.76
2016-11-25T05:39:59.845Z,3.76
2016-11-25T05:40:59.829Z,3.75
2016-11-25T05:41:59.817Z,3.69
2016-11-25T05:42:59.801Z,3.67
2016-11-25T05:43:59.787Z,3.66
2016-11-25T05:44:59.775Z,3.69
2016-11-25T05:45:59.763Z,3.71
2016-11-25T05:46:59.759Z,3.66
2016-11-25T05:47:59.735Z,3.74
2016-11-25T05:48:59.720Z,3.63
2016-11-25T05:49:59.719Z,3.57
2016-11-25T05:50:59.691Z,3.58
2016-11-25T05:51:59.671Z,3.63
2016-11-25T05:52:59.691Z,3.67
2016-11-25T05:53:59.663Z,3.69
2016-11-25T05:54:59.641Z,3.58
2016-11-25T05:55:59.630Z,3.66
2016-11-25T05:56:59.599Z,3.64
2016-11-25T05:57:59.587Z,3.61
2016-11-25T05:58:59.573Z,3.6
2016-11-25T05:59:59.568Z,3.67
2016-11-25T06:00:59.556Z,3.6
2016-11-25T06:01:59.843Z,3.57
2016-11-25T06:02:59.517Z,3.57
2016-11-25T06:03:59.503Z,3.6
2016-11-25T06:04:59.486Z,3.57
2016-11-25T06:05:59.470Z,3.6
2016-11-25T06:06:59.462Z,3.6
2016-11-25T06:07:59.447Z,3.67
2016-11-25T06:08:59.437Z,3.63
2016-11-25T06:09:59.418Z,3.6
2016-11-25T06:10:59.405Z,3.61
2016-11-25T06:11:59.386Z,3.57
2016-11-25T06:12:59.372Z,3.57
2016-11-25T06:13:59.359Z,3.53
2016-11-25T06:14:59.342Z,3.53
2016-11-25T06:15:59.329Z,3.51
2016-11-25T06:16:59.315Z,3.49
2016-11-25T06:17:59.304Z,3.57
2016-11-25T06:18:59.289Z,3.45
2016-11-25T06:19:59.271Z,3.51
2016-11-25T06:20:59.256Z,3.51
2016-11-25T06:21:59.242Z,3.53
2016-11-25T06:22:59.231Z,3.63
2016-11-25T06:23:59.215Z,3.49
2016-11-25T06:24:59.197Z,3.54
2016-11-25T06:25:59.187Z,3.46
2016-11-25T06:26:59.173Z,3.45
2016-11-25T06:27:59.158Z,3.48
2016-11-25T06:28:59.148Z,3.49
2016-11-25T06:29:59.129Z,3.48
2016-11-25T06:30:59.113Z,3.39
2016-11-25T06:31:59.097Z,3.48
2016-11-25T06:32:59.083Z,3.46
2016-11-25T06:33:59.068Z,3.45
2016-11-25T06:34:59.062Z,3.43
2016-11-25T06:35:59.040Z,3.48
2016-11-25T06:36:59.031Z,3.42
2016-11-25T06:37:59.011Z,3.43
2016-11-25T06:38:58.997Z,3.48
2016-11-25T06:39:58.982Z,3.43
2016-11-25T06:40:58.966Z,3.43
2016-11-25T06:41:58.957Z,3.4
2016-11-25T06:42:59.260Z,3.32
2016-11-25T06:43:58.925Z,3.39
2016-11-25T06:44:58.908Z,3.29
2016-11-25T06:45:58.900Z,3.3
2016-11-25T06:46:58.879Z,3.35
2016-11-25T06:47:58.869Z,3.37
2016-11-25T06:48:58.851Z,3.4
2016-11-25T06:49:58.837Z,3.35
2016-11-25T06:50:58.820Z,3.42
2016-11-25T06:51:58.813Z,3.34
2016-11-25T06:52:58.830Z,3.42
2016-11-25T06:53:58.783Z,3.42
2016-11-25T06:54:58.767Z,3.43
2016-11-25T06:55:58.751Z,3.45
2016-11-25T06:56:58.739Z,3.42
2016-11-25T06:57:58.727Z,3.43
2016-11-25T06:58:58.707Z,3.48
2016-11-25T06:59:58.693Z,3.46
2016-11-25T07:00:58.680Z,3.53
2016-11-25T07:01:58.665Z,3.49
2016-11-25T07:02:58.653Z,3.39
2016-11-25T07:03:58.636Z,3.48
2016-11-25T07:04:58.621Z,3.46
2016-11-25T07:05:58.603Z,3.56
2016-11-25T07:06:58.599Z,3.53
2016-11-25T07:07:58.579Z,3.51
2016-11-25T07:08:58.567Z,3.51
2016-11-25T07:09:58.549Z,3.63
2016-11-25T07:10:58.535Z,3.51
2016-11-25T07:11:58.522Z,3.56
2016-11-25T07:12:58.505Z,3.56
2016-11-25T07:13:58.500Z,3.54
2016-11-25T07:14:58.514Z,3.56
2016-11-25T07:15:58.461Z,3.53
2016-11-25T07:16:58.448Z,3.48
2016-11-25T07:17:58.438Z,3.57
2016-11-25T07:18:58.421Z,3.53
2016-11-25T07:19:58.402Z,3.56
2016-11-25T07:20:58.397Z,3.51
2016-11-25T07:21:58.375Z,3.53
2016-11-25T07:22:58.361Z,3.49
2016-11-25T07:23:58.350Z,3.45
2016-11-25T07:24:58.331Z,3.51
2016-11-25T07:25:58.320Z,3.43
2016-11-25T07:26:58.309Z,3.46
2016-11-25T07:27:58.289Z,3.46
2016-11-25T07:28:58.275Z,3.3
2016-11-25T07:29:58.260Z,3.3
2016-11-25T07:30:58.250Z,3.19
2016-11-25T07:31:58.233Z,3.23
2016-11-25T07:32:58.224Z,3.21
2016-11-25T07:33:58.203Z,3.21
2016-11-25T07:34:58.191Z,3.19
2016-11-25T07:35:58.176Z,3.17
2016-11-25T07:36:58.192Z,3.19
2016-11-25T07:37:58.146Z,3.21
2016-11-25T07:38:58.132Z,3.19
2016-11-25T07:39:58.116Z,3.16
2016-11-25T07:40:58.102Z,3.19
2016-11-25T07:41:58.089Z,3.05
2016-11-25T07:42:58.388Z,3.13
2016-11-25T07:43:58.062Z,3.03
2016-11-25T07:44:58.047Z,3.03
2016-11-25T07:45:58.028Z,3.03
2016-11-25T07:46:58.018Z,3.11
2016-11-25T07:47:58.001Z,3.09
2016-11-25T07:48:57.983Z,3.05
2016-11-25T07:49:57.970Z,3.09
2016-11-25T07:50:57.957Z,3.08
2016-11-25T07:51:58.256Z,2.95
2016-11-25T07:52:57.925Z,2.98
2016-11-25T07:53:57.916Z,2.99
2016-11-25T07:54:57.899Z,3.05
2016-11-25T07:55:57.882Z,2.93
2016-11-25T07:56:57.866Z,2.91
2016-11-25T07:57:57.854Z,2.96
2016-11-25T07:58:57.839Z,2.85
2016-11-25T07:59:57.822Z,2.91
2016-11-25T08:00:57.810Z,2.85
2016-11-25T08:01:57.793Z,2.77
2016-11-25T08:02:57.779Z,2.81
2016-11-25T08:03:57.762Z,2.78
2016-11-25T08:04:57.751Z,2.84
2016-11-25T08:05:57.731Z,2.73
2016-11-25T08:06:57.726Z,2.72
2016-11-25T08:07:57.705Z,2.73
2016-11-25T08:08:57.691Z,2.77
2016-11-25T08:09:57.673Z,2.83
2016-11-25T08:10:57.660Z,2.77
2016-11-25T08:11:57.643Z,2.77
2016-11-25T08:12:57.630Z,2.73
2016-11-25T08:13:57.612Z,2.72
2016-11-25T08:14:57.601Z,2.77
2016-11-25T08:15:57.599Z,2.77
2016-11-25T08:16:57.587Z,2.77
2016-11-25T08:17:57.561Z,2.76
2016-11-25T08:18:57.551Z,2.83
2016-11-25T08:19:57.529Z,2.85
2016-11-25T08:20:57.507Z,2.8
2016-11-25T08:21:57.501Z,2.72
2016-11-25T08:22:57.926Z,2.81
2016-11-25T08:23:57.467Z,2.85
2016-11-25T08:24:57.449Z,2.78
2016-11-25T08:25:57.443Z,2.78
2016-11-25T08:26:57.423Z,2.83
2016-11-25T08:27:57.418Z,2.77
2016-11-25T08:28:57.392Z,2.85
2016-11-25T08:29:57.393Z,2.83
2016-11-25T08:30:57.363Z,2.83
2016-11-25T08:31:57.351Z,2.85
2016-11-25T08:32:57.647Z,2.85
2016-11-25T08:33:57.315Z,2.83
2016-11-25T08:34:57.413Z,2.8
2016-11-25T08:35:57.288Z,2.78
2016-11-25T08:36:57.269Z,2.85
2016-11-25T08:37:57.256Z,2.88
2016-11-25T08:38:57.242Z,2.9
2016-11-25T08:39:57.369Z,2.84
2016-11-25T08:40:57.525Z,3.03
2016-11-25T08:41:57.199Z,2.99
2016-11-25T08:42:57.188Z,2.93
2016-11-25T08:43:57.163Z,3.01
2016-11-25T08:44:57.157Z,3.08
2016-11-25T08:45:57.139Z,3.02
2016-11-25T08:46:57.123Z,3.14
2016-11-25T08:47:57.109Z,3.19
2016-11-25T08:48:57.092Z,3.2
2016-11-25T08:49:57.119Z,3.23
2016-11-25T08:50:57.067Z,3.21
2016-11-25T08:51:57.050Z,3.19
2016-11-25T08:52:57.033Z,3.21
2016-11-25T08:53:57.245Z,3.19
2016-11-25T08:54:57.010Z,3.2
2016-11-25T08:55:57.310Z,3.14
2016-11-25T08:56:56.974Z,3.17
2016-11-25T08:57:56.966Z,3.11
2016-11-25T08:58:56.944Z,3.06
2016-11-25T08:59:57.010Z,3.05
2016-11-25T09:00:57.021Z,2.96
2016-11-25T09:01:57.091Z,2.96
2016-11-25T09:02:57.205Z,2.96
2016-11-25T09:03:56.873Z,2.83
2016-11-25T09:04:56.968Z,2.9
2016-11-25T09:05:57.066Z,2.9
2016-11-25T09:06:56.902Z,2.98
2016-11-25T09:07:56.822Z,2.99
2016-11-25T09:08:56.943Z,2.95
2016-11-25T09:09:56.833Z,2.96
2016-11-25T09:10:56.773Z,2.91
2016-11-25T09:11:56.760Z,2.91
2016-11-25T09:12:57.061Z,2.85
2016-11-25T09:13:56.767Z,2.9
2016-11-25T09:14:56.719Z,3.03
2016-11-25T09:15:56.694Z,3.11
2016-11-25T09:16:56.679Z,3.02
2016-11-25T09:17:56.665Z,3.13
2016-11-25T09:18:56.652Z,3.05
2016-11-25T09:19:56.637Z,3.03
2016-11-25T09:20:56.621Z,2.96
2016-11-25T09:21:56.606Z,2.9
2016-11-25T09:22:56.594Z,2.93
2016-11-25T09:23:56.674Z,3.08
2016-11-25T09:24:56.830Z,3.08
2016-11-25T09:25:56.820Z,3.03
2016-11-25T09:26:56.533Z,3.03
2016-11-25T09:27:56.515Z,3.14
2016-11-25T09:28:56.506Z,3.11
2016-11-25T09:29:56.486Z,3.2
2016-11-25T09:30:56.475Z,3.24
2016-11-25T09:31:56.675Z,3.21
2016-11-25T09:32:56.445Z,3.19
2016-11-25T09:33:56.431Z,3.27
2016-11-25T09:34:56.417Z,3.27
2016-11-25T09:35:56.398Z,3.39
2016-11-25T09:36:56.392Z,3.4
2016-11-25T09:37:56.369Z,3.43
2016-11-25T09:38:56.356Z,3.43
2016-11-25T09:39:56.374Z,3.48
2016-11-25T09:40:56.327Z,3.48
2016-11-25T09:41:56.317Z,3.46
2016-11-25T09:42:56.299Z,3.49
2016-11-25T09:43:56.291Z,3.48
2016-11-25T09:44:56.271Z,3.53
2016-11-25T09:45:56.255Z,3.53
2016-11-25T09:46:56.249Z,3.42
2016-11-25T09:47:56.226Z,3.48
2016-11-25T09:48:56.213Z,3.42
2016-11-25T09:49:56.197Z,3.4
2016-11-25T09:50:56.182Z,3.42
2016-11-25T09:51:56.168Z,3.43
2016-11-25T09:52:56.152Z,3.37
2016-11-25T09:53:56.143Z,3.39
2016-11-25T09:54:56.126Z,3.35
2016-11-25T09:55:56.110Z,3.48
2016-11-25T09:56:56.096Z,3.48
2016-11-25T09:57:56.081Z,3.46
2016-11-25T09:58:56.067Z,3.42
2016-11-25T09:59:56.052Z,3.53
2016-11-25T10:00:56.036Z,3.48
2016-11-25T10:01:56.024Z,3.53
2016-11-25T10:02:56.008Z,3.54
2016-11-25T10:03:55.997Z,3.56
2016-11-25T10:04:56.091Z,3.56
2016-11-25T10:05:55.973Z,3.49
2016-11-25T10:06:55.950Z,3.56
2016-11-25T10:07:55.940Z,3.57
2016-11-25T10:08:55.924Z,3.6
2016-11-25T10:09:55.913Z,3.58
2016-11-25T10:10:55.891Z,3.63
2016-11-25T10:11:55.941Z,3.54
2016-11-25T10:12:55.863Z,3.56
2016-11-25T10:13:55.854Z,3.53
2016-11-25T10:14:55.835Z,3.57
2016-11-25T10:15:55.820Z,3.51
2016-11-25T10:16:55.810Z,3.53
2016-11-25T10:17:55.794Z,3.54
2016-11-25T10:18:55.798Z,3.45
2016-11-25T10:19:55.764Z,3.53
2016-11-25T10:20:55.843Z,3.51
2016-11-25T10:21:55.757Z,3.45
2016-11-25T10:22:56.136Z,3.53
2016-11-25T10:23:55.704Z,3.56
2016-11-25T10:24:55.694Z,3.42
2016-11-25T10:25:55.680Z,3.56
2016-11-25T10:26:55.665Z,3.58
2016-11-25T10:27:55.649Z,3.51
2016-11-25T10:28:55.632Z,3.57
2016-11-25T10:29:55.620Z,3.67
2016-11-25T10:30:55.609Z,3.76
2016-11-25T10:31:55.624Z,3.74
2016-11-25T10:32:55.844Z,3.74
2016-11-25T10:33:55.724Z,3.85
2016-11-25T10:34:55.841Z,3.79
2016-11-25T10:35:55.537Z,3.81
2016-11-25T10:36:55.519Z,3.79
2016-11-25T10:37:55.505Z,3.84
2016-11-25T10:38:55.491Z,3.89
2016-11-25T10:39:55.508Z,3.94
2016-11-25T10:40:55.464Z,3.93
2016-11-25T10:41:55.641Z,4.04
2016-11-25T10:42:55.735Z,3.99
2016-11-25T10:43:56.059Z,3.97
2016-11-25T10:44:55.409Z,3.92
2016-11-25T10:45:55.396Z,3.97
2016-11-25T10:46:55.386Z,4.07
2016-11-25T10:47:55.362Z,4.12
2016-11-25T10:48:55.488Z,4.14
2016-11-25T10:49:55.341Z,4.15
2016-11-25T10:50:55.321Z,4.14
2016-11-25T10:51:55.308Z,4.11
2016-11-25T10:52:55.293Z,4.12
2016-11-25T10:53:55.283Z,4.12
2016-11-25T10:54:55.263Z,4.11
2016-11-25T10:55:55.254Z,4.21
2016-11-25T10:56:55.238Z,4.2
2016-11-25T10:57:55.509Z,4.2
2016-11-25T10:58:55.212Z,4.24
2016-11-25T10:59:55.195Z,4.28
2016-11-25T11:00:55.380Z,4.29
2016-11-25T11:01:55.167Z,4.17
2016-11-25T11:02:55.155Z,4.24
2016-11-25T11:03:55.139Z,4.3
2016-11-25T11:04:55.530Z,4.24
2016-11-25T11:05:55.110Z,4.28
2016-11-25T11:06:55.100Z,4.26
2016-11-25T11:07:55.084Z,4.26
2016-11-25T11:08:55.070Z,4.28
2016-11-25T11:09:55.056Z,4.21
2016-11-25T11:10:55.040Z,4.29
2016-11-25T11:11:55.030Z,4.24
2016-11-25T11:12:55.014Z,4.29
2016-11-25T11:13:55.002Z,4.36
2016-11-25T11:14:54.987Z,4.39
2016-11-25T11:15:54.975Z,4.48
2016-11-25T11:16:55.229Z,4.44
2016-11-25T11:17:55.428Z,4.53
2016-11-25T11:18:55.098Z,4.48
2016-11-25T11:19:54.921Z,4.51
2016-11-25T11:20:54.907Z,4.53
2016-11-25T11:21:54.891Z,4.54
2016-11-25T11:22:54.881Z,4.56
2016-11-25T11:23:54.867Z,4.5
2016-11-25T11:24:54.850Z,4.53
2016-11-25T11:25:54.837Z,4.46
2016-11-25T11:26:55.140Z,4.46
2016-11-25T11:27:54.808Z,4.51
2016-11-25T11:28:54.796Z,4.61
2016-11-25T11:29:54.780Z,4.54
2016-11-25T11:30:54.775Z,4.56
2016-11-25T11:31:54.837Z,4.71
2016-11-25T11:32:54.746Z,4.71
2016-11-25T11:33:54.770Z,4.69
2016-11-25T11:34:54.715Z,4.72
2016-11-25T11:35:54.705Z,4.71
2016-11-25T11:36:54.690Z,4.74
2016-11-25T11:37:54.675Z,4.9
2016-11-25T11:38:54.663Z,4.91
2016-11-25T11:39:54.648Z,4.92
2016-11-25T11:40:54.635Z,4.92
2016-11-25T11:41:54.629Z,5.06
2016-11-25T11:42:54.703Z,5.09
2016-11-25T11:43:54.851Z,5.12
2016-11-25T11:44:54.790Z,5.21
2016-11-25T11:45:54.705Z,5.18
2016-11-25T11:46:54.551Z,5.16
2016-11-25T11:47:54.540Z,5.16
2016-11-25T11:48:54.526Z,5.1
2016-11-25T11:49:54.514Z,5.26
2016-11-25T11:50:54.502Z,5.16
2016-11-25T11:51:54.486Z,5.16
2016-11-25T11:52:54.476Z,5.21
2016-11-25T11:53:54.467Z,5.13
2016-11-25T11:54:54.445Z,5.13
2016-11-25T11:55:54.434Z,5.13
2016-11-25T11:56:54.421Z,5.09
2016-11-25T11:57:54.407Z,5.09
2016-11-25T11:58:54.398Z,5.12
2016-11-25T11:59:54.392Z,4.98
2016-11-25T12:00:54.370Z,4.95
2016-11-25T12:01:54.363Z,4.92
2016-11-25T12:02:54.342Z,4.79
2016-11-25T12:03:54.654Z,4.83
2016-11-25T12:04:54.322Z,4.83
2016-11-25T12:05:54.306Z,4.74
2016-11-25T12:06:54.287Z,4.78
2016-11-25T12:07:54.279Z,4.71
2016-11-25T12:08:54.270Z,4.75
2016-11-25T12:09:54.250Z,4.71
2016-11-25T12:10:54.246Z,4.68
2016-11-25T12:11:54.220Z,4.66
2016-11-25T12:12:54.213Z,4.65
2016-11-25T12:13:54.198Z,4.57
2016-11-25T12:14:54.217Z,4.57
2016-11-25T12:15:54.170Z,4.61
2016-11-25T12:16:54.167Z,4.47
2016-11-25T12:17:54.141Z,4.53
2016-11-25T12:18:54.130Z,4.5
2016-11-25T12:19:54.123Z,4.6
2016-11-25T12:20:54.105Z,4.51
2016-11-25T12:21:54.095Z,4.51
2016-11-25T12:22:54.076Z,4.47
2016-11-25T12:23:54.063Z,4.51
2016-11-25T12:24:54.050Z,4.5
2016-11-25T12:25:54.045Z,4.53
2016-11-25T12:26:54.029Z,4.48
2016-11-25T12:27:54.008Z,4.5
2016-11-25T12:28:53.997Z,4.42
2016-11-25T12:29:53.984Z,4.35
2016-11-25T12:30:53.970Z,4.3
2016-11-25T12:31:53.956Z,4.33
2016-11-25T12:32:53.944Z,4.38
2016-11-25T12:33:53.932Z,4.32
2016-11-25T12:34:53.922Z,4.3
2016-11-25T12:35:53.901Z,4.38
2016-11-25T12:36:53.885Z,4.36
2016-11-25T12:37:53.872Z,4.21
2016-11-25T12:38:53.860Z,4.36
2016-11-25T12:39:53.846Z,4.3
2016-11-25T12:40:53.832Z,4.29
2016-11-25T12:41:53.820Z,4.3
2016-11-25T12:42:53.850Z,4.3
2016-11-25T12:43:53.792Z,4.3
2016-11-25T12:44:53.808Z,4.22
2016-11-25T12:45:53.763Z,4.29
2016-11-25T12:46:53.750Z,4.3
2016-11-25T12:47:53.737Z,4.32
2016-11-25T12:48:53.723Z,4.35
2016-11-25T12:49:53.710Z,4.29
2016-11-25T12:50:53.695Z,4.2
2016-11-25T12:51:53.682Z,4.26
2016-11-25T12:52:53.665Z,4.15
2016-11-25T12:53:53.652Z,4.21
2016-11-25T12:54:53.638Z,4.24
2016-11-25T12:55:53.630Z,4.18
2016-11-25T12:56:53.615Z,4.2
2016-11-25T12:57:53.597Z,4.11
2016-11-25T12:58:53.585Z,4.17
2016-11-25T12:59:53.570Z,4.2
2016-11-25T13:00:53.556Z,4.15
2016-11-25T13:01:53.541Z,4.17
2016-11-25T13:02:53.528Z,4.2
2016-11-25T13:03:53.514Z,4.14
2016-11-25T13:04:53.498Z,4.26
2016-11-25T13:05:53.517Z,4.26
2016-11-25T13:06:53.473Z,4.18
2016-11-25T13:07:53.459Z,4.3
2016-11-25T13:08:53.442Z,4.35
2016-11-25T13:09:53.432Z,4.3
2016-11-25T13:10:53.418Z,4.3
2016-11-25T13:11:53.404Z,4.29
2016-11-25T13:12:53.387Z,4.3
2016-11-25T13:13:53.374Z,4.35
2016-11-25T13:14:53.361Z,4.33
2016-11-25T13:15:53.347Z,4.38
2016-11-25T13:16:53.335Z,4.35
2016-11-25T13:17:53.346Z,4.42
2016-11-25T13:18:53.304Z,4.36
2016-11-25T13:19:53.290Z,4.33
2016-11-25T13:20:53.283Z,4.4
2016-11-25T13:21:53.262Z,4.38